createdAt,value
2018-12-02T00:01:29.198Z,7.50
2018-12-02T00:03:58.751Z,7.50
2018-12-02T00:06:27.956Z,7.50
2018-12-02T00:08:57.497Z,7.40
2018-12-02T00:11:27.337Z,7.40
2018-12-02T00:13:56.779Z,7.40
2018-12-02T00:16:26.351Z,7.40
2018-12-02T00:18:55.624Z,7.40
2018-12-02T00:21:25.036Z,7.40
2018-12-02T00:23:54.332Z,7.50
2018-12-02T00:26:23.759Z,7.50
2018-12-02T00:28:53.097Z,7.50
2018-12-02T00:31:22.485Z,7.50
2018-12-02T00:33:51.817Z,7.60
2018-12-02T00:36:21.793Z,7.60
2018-12-02T00:38:51.229Z,7.60
2018-12-02T00:41:20.682Z,7.60
2018-12-02T00:43:50.371Z,7.60
2018-12-02T00:46:19.800Z,7.60
2018-12-02T00:48:49.366Z,7.70
2018-12-02T00:51:18.702Z,7.70
2018-12-02T00:53:48.604Z,7.70
2018-12-02T00:56:16.466Z,7.70
2018-12-02T00:58:45.744Z,7.70
2018-12-02T01:01:15.126Z,7.70
2018-12-02T01:03:44.618Z,7.70
2018-12-02T01:06:14.184Z,7.70
2018-12-02T01:08:43.640Z,7.80
2018-12-02T01:11:12.876Z,7.80
2018-12-02T01:13:42.119Z,7.70
2018-12-02T01:16:11.412Z,7.70
2018-12-02T01:18:40.979Z,7.70
2018-12-02T01:21:10.253Z,7.70
2018-12-02T01:23:39.882Z,7.70
2018-12-02T01:26:09.434Z,7.70
2018-12-02T01:28:38.927Z,7.70
2018-12-02T01:31:08.663Z,7.70
2018-12-02T01:33:37.973Z,7.70
2018-12-02T01:36:07.952Z,7.70
2018-12-02T01:38:37.322Z,7.70
2018-12-02T01:41:06.753Z,7.70
2018-12-02T01:43:36.045Z,7.70
2018-12-02T01:46:05.633Z,7.70
2018-12-02T01:48:35.408Z,7.70
2018-12-02T01:51:04.671Z,7.70
2018-12-02T01:53:34.562Z,7.70
2018-12-02T01:56:04.025Z,7.70
2018-12-02T01:58:33.838Z,7.70
2018-12-02T02:01:03.131Z,7.70
2018-12-02T02:03:33.557Z,7.70
2018-12-02T02:06:03.535Z,7.70
2018-12-02T02:08:33.705Z,7.80
2018-12-02T02:11:03.270Z,7.80
2018-12-02T02:13:32.699Z,7.80
2018-12-02T02:16:02.644Z,7.80
2018-12-02T02:18:31.978Z,7.90
2018-12-02T02:21:01.789Z,7.90
2018-12-02T02:23:31.906Z,7.90
2018-12-02T02:26:01.201Z,7.90
2018-12-02T02:28:31.493Z,7.90
2018-12-02T02:31:01.255Z,8.00
2018-12-02T02:33:31.310Z,8.00
2018-12-02T02:36:00.694Z,8.00
2018-12-02T02:38:29.848Z,8.10
2018-12-02T02:40:59.450Z,8.10
2018-12-02T02:43:29.377Z,8.20
2018-12-02T02:45:58.532Z,8.30
2018-12-02T02:48:28.165Z,8.30
2018-12-02T02:50:57.982Z,8.40
2018-12-02T02:53:27.230Z,8.40
2018-12-02T02:55:56.653Z,8.40
2018-12-02T02:58:26.733Z,8.50
2018-12-02T03:00:55.932Z,8.50
2018-12-02T03:03:25.297Z,8.50
2018-12-02T03:05:54.785Z,8.50
2018-12-02T03:08:24.092Z,8.60
2018-12-02T03:10:53.401Z,8.60
2018-12-02T03:13:22.935Z,8.60
2018-12-02T03:15:52.009Z,8.60
2018-12-02T03:18:21.501Z,8.60
2018-12-02T03:20:51.566Z,8.60
2018-12-02T03:23:21.110Z,8.60
2018-12-02T03:25:50.212Z,8.60
2018-12-02T03:28:19.667Z,8.70
2018-12-02T03:30:49.065Z,8.60
2018-12-02T03:33:19.091Z,8.60
2018-12-02T03:35:48.182Z,8.60
2018-12-02T03:38:17.485Z,8.70
2018-12-02T03:40:46.729Z,8.60
2018-12-02T03:43:16.120Z,8.60
2018-12-02T03:45:46.136Z,8.60
2018-12-02T03:48:15.475Z,8.60
2018-12-02T03:50:44.831Z,8.60
2018-12-02T03:53:14.270Z,8.60
2018-12-02T03:55:44.207Z,8.70
2018-12-02T03:58:13.477Z,8.70
2018-12-02T04:00:42.980Z,8.70
2018-12-02T04:03:12.412Z,8.80
2018-12-02T04:05:42.105Z,8.80
2018-12-02T04:08:11.934Z,8.80
2018-12-02T04:10:41.248Z,8.80
2018-12-02T04:13:10.719Z,8.80
2018-12-02T04:15:40.442Z,8.90
2018-12-02T04:18:09.761Z,8.90
2018-12-02T04:20:39.218Z,8.90
2018-12-02T04:23:08.643Z,8.90
2018-12-02T04:25:38.263Z,8.90
2018-12-02T04:28:07.758Z,8.90
2018-12-02T04:30:37.058Z,8.90
2018-12-02T04:33:06.415Z,9.00
2018-12-02T04:35:35.538Z,9.00
2018-12-02T04:38:04.855Z,9.00
2018-12-02T04:40:34.791Z,9.00
2018-12-02T04:43:04.134Z,9.00
2018-12-02T04:45:33.369Z,9.00
2018-12-02T04:48:02.817Z,9.00
2018-12-02T04:50:33.049Z,9.00
2018-12-02T04:53:02.803Z,9.00
2018-12-02T04:55:32.127Z,9.00
2018-12-02T04:58:01.703Z,9.00
2018-12-02T05:00:31.117Z,9.00
2018-12-02T05:03:00.676Z,9.00
2018-12-02T05:05:30.260Z,9.00
2018-12-02T05:07:59.574Z,9.00
2018-12-02T05:10:28.904Z,9.10
2018-12-02T05:12:58.851Z,9.00
2018-12-02T05:15:28.283Z,9.10
2018-12-02T05:17:57.970Z,9.00
2018-12-02T05:20:27.472Z,9.00
2018-12-02T05:22:57.067Z,9.10
2018-12-02T05:25:26.562Z,9.20
2018-12-02T05:27:56.144Z,9.30
2018-12-02T05:30:25.704Z,9.30
2018-12-02T05:32:55.219Z,9.40
2018-12-02T05:35:25.192Z,9.50
2018-12-02T05:37:54.395Z,9.40
2018-12-02T05:40:24.354Z,9.50
2018-12-02T05:42:54.368Z,9.40
2018-12-02T05:45:24.085Z,9.40
2018-12-02T05:47:53.303Z,9.30
2018-12-02T05:50:24.454Z,9.30
2018-12-02T05:52:54.877Z,9.20
2018-12-02T05:55:25.429Z,9.10
2018-12-02T05:57:54.595Z,9.10
2018-12-02T06:00:24.258Z,9.10
2018-12-02T06:02:53.623Z,8.90
2018-12-02T06:05:23.320Z,8.90
2018-12-02T06:07:52.648Z,8.90
2018-12-02T06:10:22.787Z,8.90
2018-12-02T06:12:52.478Z,8.90
2018-12-02T06:15:22.089Z,8.80
2018-12-02T06:17:51.263Z,8.80
2018-12-02T06:20:22.812Z,8.70
2018-12-02T06:22:53.489Z,8.80
2018-12-02T06:25:22.780Z,8.80
2018-12-02T06:27:52.313Z,8.80
2018-12-02T06:30:24.441Z,8.80
2018-12-02T06:32:56.791Z,8.80
2018-12-02T06:35:25.913Z,8.80
2018-12-02T06:37:56.154Z,8.80
2018-12-02T06:40:26.358Z,8.90
2018-12-02T06:42:55.618Z,8.90
2018-12-02T06:45:24.855Z,8.90
2018-12-02T06:47:54.261Z,9.00
2018-12-02T06:50:24.874Z,9.00
2018-12-02T06:52:54.915Z,9.00
2018-12-02T06:55:41.305Z,9.00
2018-12-02T06:58:15.800Z,9.00
2018-12-02T07:01:01.144Z,9.00
2018-12-02T07:04:36.360Z,9.00
2018-12-02T07:07:06.714Z,8.90
2018-12-02T07:09:36.014Z,8.90
2018-12-02T07:12:05.402Z,8.90
2018-12-02T07:14:35.501Z,8.80
2018-12-02T07:17:04.930Z,8.80
2018-12-02T07:19:39.311Z,8.80
2018-12-02T07:22:13.725Z,8.80
2018-12-02T07:24:44.132Z,8.80
2018-12-02T07:27:15.913Z,8.70
2018-12-02T07:29:45.274Z,8.70
2018-12-02T07:32:14.810Z,8.70
2018-12-02T07:34:43.956Z,8.70
2018-12-02T07:37:17.448Z,8.60
2018-12-02T11:52:58.621Z,8.90
2018-12-02T11:55:28.055Z,9.00
2018-12-02T11:57:57.360Z,9.00
2018-12-02T12:00:28.931Z,9.00
2018-12-02T12:02:59.890Z,8.90
2018-12-02T12:05:29.425Z,9.00
2018-12-02T12:07:59.252Z,9.00
2018-12-02T12:10:29.241Z,9.00
2018-12-02T12:13:01.270Z,9.00
2018-12-02T12:15:31.805Z,9.00
2018-12-02T12:18:01.438Z,9.00
2018-12-02T12:20:41.046Z,9.00
2018-12-02T12:23:12.372Z,9.00
2018-12-02T12:25:41.866Z,9.10
2018-12-02T12:28:11.183Z,9.10
2018-12-02T12:30:40.664Z,9.10
2018-12-02T12:33:10.745Z,9.20
2018-12-02T12:35:42.144Z,9.20
2018-12-02T12:38:11.979Z,9.30
2018-12-02T12:40:41.907Z,9.30
2018-12-02T12:43:14.939Z,9.40
2018-12-02T12:45:44.566Z,9.40
2018-12-02T12:48:14.009Z,9.50
2018-12-02T12:50:43.515Z,9.40
2018-12-02T12:53:13.252Z,9.50
2018-12-02T12:55:42.506Z,9.50
2018-12-02T12:58:12.981Z,9.60
2018-12-02T13:00:42.206Z,9.50
2018-12-02T13:03:11.821Z,9.60
2018-12-02T13:05:40.971Z,9.60
2018-12-02T13:08:12.615Z,9.70
2018-12-02T13:10:41.935Z,9.70
2018-12-02T13:13:11.811Z,9.70
2018-12-02T13:15:41.245Z,9.70
2018-12-02T13:18:11.168Z,9.80
2018-12-02T13:20:46.036Z,9.80
2018-12-02T13:23:15.600Z,9.80
2018-12-02T13:25:45.051Z,9.80
2018-12-02T13:28:15.122Z,9.80
2018-12-02T13:30:44.452Z,9.80
2018-12-02T13:33:13.925Z,9.80
2018-12-02T13:35:43.197Z,9.80
2018-12-02T13:38:13.994Z,9.80
2018-12-02T13:40:44.254Z,9.80
2018-12-02T13:43:17.043Z,9.80
2018-12-02T13:45:47.601Z,9.80
2018-12-02T13:48:16.954Z,9.90
2018-12-02T14:14:46.011Z,19.20
2018-12-02T14:28:21.358Z,22.10
2018-12-02T14:30:50.966Z,22.70
2018-12-02T14:33:20.239Z,22.70
2018-12-02T14:35:49.797Z,22.80
2018-12-02T14:38:19.221Z,22.80
2018-12-02T14:40:48.341Z,22.80
2018-12-02T14:43:17.804Z,22.90
2018-12-02T14:45:47.289Z,22.90
2018-12-02T14:48:19.003Z,23.00
2018-12-02T14:50:48.409Z,23.00
2018-12-02T14:53:17.693Z,23.00
2018-12-02T14:55:47.087Z,23.10
2018-12-02T14:58:17.229Z,23.10
2018-12-02T15:00:46.559Z,23.20
2018-12-02T15:03:16.340Z,23.20
2018-12-02T15:05:45.691Z,23.30
2018-12-02T15:08:16.462Z,23.30
2018-12-02T15:10:45.655Z,23.40
2018-12-02T15:13:15.546Z,23.40
2018-12-02T15:15:44.997Z,23.40
2018-12-02T15:18:14.605Z,23.40
2018-12-02T15:20:43.961Z,23.50
2018-12-02T15:23:13.450Z,23.50
2018-12-02T15:25:42.968Z,23.50
2018-12-02T15:28:12.550Z,23.50
2018-12-02T15:30:43.181Z,23.50
2018-12-02T15:33:12.397Z,23.60
2018-12-02T15:35:42.046Z,23.70
2018-12-02T15:38:11.325Z,24.30
2018-12-02T16:08:05.519Z,15.30
2018-12-02T16:10:34.977Z,16.80
2018-12-02T16:13:05.106Z,18.00
2018-12-02T16:15:35.418Z,19.20
2018-12-02T16:18:05.624Z,20.20
2018-12-02T16:20:46.760Z,20.90
2018-12-02T16:23:18.116Z,21.50
2018-12-02T16:25:47.829Z,22.00
2018-12-02T16:28:17.397Z,22.50
2018-12-02T16:32:55.064Z,22.50
2018-12-02T16:35:25.382Z,19.60
2018-12-02T16:37:55.587Z,17.00
2018-12-02T16:40:25.797Z,14.90
2018-12-02T16:42:56.282Z,13.70
2018-12-02T16:45:25.724Z,12.70
2018-12-02T16:47:56.193Z,11.90
2018-12-02T16:50:27.890Z,11.40
2018-12-02T16:52:58.813Z,11.70
2018-12-02T16:55:31.248Z,12.00
2018-12-02T16:58:08.011Z,11.90
2018-12-02T17:00:50.568Z,11.80
2018-12-02T17:03:19.927Z,11.50
2018-12-02T17:05:49.204Z,11.30
2018-12-02T17:08:19.129Z,11.10
2018-12-02T17:10:50.354Z,11.00
2018-12-02T17:13:18.127Z,10.90
2018-12-02T17:15:47.439Z,10.80
2018-12-02T17:18:16.670Z,10.60
2018-12-02T17:20:46.994Z,10.40
2018-12-02T17:23:16.301Z,10.30
2018-12-02T17:25:46.417Z,10.20
2018-12-02T17:28:15.783Z,10.20
2018-12-02T17:30:50.219Z,10.10
2018-12-02T17:33:19.652Z,10.10
2018-12-02T17:35:48.948Z,10.00
2018-12-02T17:38:18.504Z,10.00
2018-12-02T17:40:48.335Z,9.90
2018-12-02T17:43:17.765Z,9.90
2018-12-02T17:45:47.154Z,9.90
2018-12-02T17:48:16.281Z,9.90
2018-12-02T17:50:46.271Z,9.90
2018-12-02T17:53:15.858Z,9.90
2018-12-02T17:55:45.255Z,9.90
2018-12-02T17:58:14.621Z,9.90
2018-12-02T18:00:44.053Z,9.80
2018-12-02T18:03:16.268Z,9.80
2018-12-02T18:05:46.739Z,9.90
2018-12-02T18:08:16.030Z,9.80
2018-12-02T18:10:45.586Z,9.80
2018-12-02T18:13:15.028Z,9.80
2018-12-02T18:15:44.350Z,9.80
2018-12-02T18:18:14.280Z,9.80
2018-12-02T18:20:43.598Z,9.80
2018-12-02T18:23:13.405Z,9.80
2018-12-02T18:25:42.752Z,9.70
2018-12-02T18:28:12.186Z,9.70
2018-12-02T18:30:41.718Z,9.70
2018-12-02T18:33:11.281Z,9.70
2018-12-02T18:35:42.763Z,9.60
2018-12-02T18:38:18.421Z,9.70
2018-12-02T18:41:00.435Z,9.60
2018-12-02T18:43:29.691Z,9.60
2018-12-02T18:45:59.205Z,9.60
2018-12-02T18:48:28.807Z,9.70
2018-12-02T18:50:58.272Z,9.70
2018-12-02T18:53:27.539Z,9.70
2018-12-02T18:55:56.905Z,9.60
2018-12-02T18:58:26.425Z,9.60
2018-12-02T19:00:55.769Z,9.60
2018-12-02T19:03:26.342Z,9.70
2018-12-02T19:05:55.795Z,9.70
2018-12-02T19:08:25.342Z,9.60
2018-12-02T19:10:58.931Z,9.60
2018-12-02T19:13:28.383Z,9.60
2018-12-02T19:15:57.866Z,9.60
2018-12-02T19:18:27.479Z,9.50
2018-12-02T19:20:59.280Z,9.50
2018-12-02T19:23:33.439Z,9.50
2018-12-02T19:26:02.767Z,9.50
2018-12-02T19:28:32.039Z,9.40
2018-12-02T19:31:02.057Z,9.40
2018-12-02T19:33:31.382Z,9.40
2018-12-02T19:36:03.652Z,9.40
2018-12-02T19:38:33.219Z,9.40
2018-12-02T19:41:03.032Z,9.40
2018-12-02T19:43:32.456Z,9.40
2018-12-02T19:46:02.083Z,9.40
2018-12-02T19:48:31.550Z,9.40
2018-12-02T19:51:01.206Z,9.40
2018-12-02T19:53:30.818Z,9.40
2018-12-02T19:56:00.094Z,9.40
2018-12-02T19:58:29.439Z,9.40
2018-12-02T20:00:58.687Z,9.40
2018-12-02T20:03:28.442Z,9.40
2018-12-02T20:05:57.894Z,9.50
2018-12-02T20:08:27.047Z,9.50
2018-12-02T20:10:56.427Z,9.50
2018-12-02T20:13:26.062Z,9.50
2018-12-02T20:16:00.779Z,9.50
2018-12-02T20:18:30.004Z,9.50
2018-12-02T20:21:00.809Z,9.50
2018-12-02T20:23:35.537Z,9.50
2018-12-02T20:26:05.492Z,9.50
2018-12-02T20:28:38.880Z,9.50
2018-12-02T20:31:16.148Z,9.50
2018-12-02T20:33:45.718Z,9.50
2018-12-02T20:36:15.096Z,9.50
2018-12-02T20:38:44.501Z,9.50
2018-12-02T20:41:13.967Z,9.50
2018-12-02T20:43:43.311Z,9.50
2018-12-02T20:46:12.499Z,9.50
2018-12-02T20:48:41.940Z,9.50
2018-12-02T20:51:11.762Z,9.50
2018-12-02T20:53:41.115Z,9.50
2018-12-02T20:56:10.418Z,9.50
2018-12-02T20:58:40.109Z,9.70
2018-12-02T21:01:10.656Z,9.70
2018-12-02T21:03:42.635Z,9.70
2018-12-02T21:06:15.040Z,9.70
2018-12-02T21:08:44.230Z,9.70
2018-12-02T21:11:14.715Z,9.70
2018-12-02T21:13:44.179Z,9.70
2018-12-02T21:16:13.659Z,9.60
2018-12-02T21:18:43.810Z,9.70
2018-12-02T21:21:13.269Z,9.70
2018-12-02T21:23:42.481Z,9.60
2018-12-02T21:26:12.422Z,9.70
2018-12-02T21:28:42.563Z,9.70
2018-12-02T21:31:13.097Z,9.70
2018-12-02T21:33:42.495Z,9.70
2018-12-02T21:36:11.830Z,9.70
2018-12-02T21:38:41.288Z,9.70
2018-12-02T21:41:10.668Z,9.70
2018-12-02T21:43:40.230Z,9.70
2018-12-02T21:46:10.141Z,9.60
2018-12-02T21:48:39.536Z,9.70
2018-12-02T21:51:08.658Z,9.60
2018-12-02T21:53:38.138Z,9.60
2018-12-02T21:56:07.254Z,9.60
2018-12-02T21:58:36.496Z,9.60
2018-12-02T22:01:11.113Z,9.60
2018-12-02T22:03:40.367Z,9.60
2018-12-02T22:06:09.658Z,9.70
2018-12-02T22:08:39.319Z,9.70
2018-12-02T22:11:08.697Z,9.80
2018-12-02T22:13:43.260Z,10.00
2018-12-02T22:16:07.712Z,10.10
2018-12-02T22:18:37.269Z,10.20
2018-12-02T22:21:06.973Z,10.20
2018-12-02T22:23:36.375Z,10.30
2018-12-02T22:26:05.616Z,10.30
2018-12-02T22:28:35.176Z,10.30
2018-12-02T22:31:04.423Z,10.30
2018-12-02T22:33:34.587Z,10.40
2018-12-02T22:36:04.160Z,10.40
2018-12-02T22:38:33.578Z,10.30
2018-12-02T22:41:03.121Z,10.30
2018-12-02T22:43:32.900Z,10.30
2018-12-02T22:46:02.097Z,10.40
2018-12-02T22:48:31.198Z,10.40
2018-12-02T22:51:00.453Z,10.40
2018-12-02T22:53:29.790Z,10.40
2018-12-02T22:55:59.129Z,10.40
2018-12-02T22:58:29.337Z,10.40
2018-12-02T23:01:03.769Z,10.40
2018-12-02T23:03:34.303Z,10.40
2018-12-02T23:06:03.748Z,10.40
2018-12-02T23:08:33.018Z,10.40
2018-12-02T23:11:03.681Z,10.40
2018-12-02T23:13:33.172Z,10.40
2018-12-02T23:16:02.754Z,10.40
2018-12-02T23:18:32.140Z,10.40
2018-12-02T23:21:01.541Z,10.40
2018-12-02T23:23:31.308Z,10.40
2018-12-02T23:26:00.531Z,10.40
2018-12-02T23:28:30.373Z,10.50
2018-12-02T23:31:00.033Z,10.40
2018-12-02T23:33:29.549Z,10.50
2018-12-02T23:35:58.728Z,10.50
2018-12-02T23:38:27.993Z,10.40
2018-12-02T23:40:58.033Z,10.50
2018-12-02T23:43:27.282Z,10.50
2018-12-02T23:45:56.399Z,10.50
2018-12-02T23:48:25.736Z,10.50
2018-12-02T23:50:55.369Z,10.60
2018-12-02T23:53:25.349Z,10.60
2018-12-02T23:55:54.498Z,10.60
2018-12-02T23:58:24.090Z,10.60
